Time;durP1;ratioP1;P1;durP2;ratioP2;P2;SDS_P1;SDS_P2;PMS_P1;PMS_P2;Temp;Humidity;BMP_temperature;BMP_pressure;BME280_temperature;BME280_humidity;BME280_pressure;Samples;Min_cycle;Max_cycle;Signal;HPM_P1;HPM_P2
2021/07/01 00:00:34;;;;;;;2.05;0.95;;;;;;;13.02;89.00;96126.69;5012930;28;20045;-74
2021/07/01 00:03:01;;;;;;;1.13;0.95;;;;;;;13.08;89.33;96125.34;5013207;28;20053;-73
2021/07/01 00:05:28;;;;;;;1.55;1.02;;;;;;;13.15;89.58;96131.03;5012444;28;20038;-73
2021/07/01 00:07:54;;;;;;;2.00;1.35;;;;;;;13.14;88.80;96129.44;5013488;28;20414;-73
2021/07/01 00:10:28;;;;;;;1.15;0.93;;;;;;;13.16;88.85;96126.38;5012797;28;20053;-74
2021/07/01 00:12:56;;;;;;;3.90;1.30;;;;;;;13.11;88.70;96130.13;5013084;28;20057;-74
2021/07/01 00:15:25;;;;;;;1.63;1.05;;;;;;;13.04;88.54;96135.34;5012552;28;20434;-73
2021/07/01 00:17:52;;;;;;;1.30;1.00;;;;;;;12.94;88.15;96133.03;5013069;28;20050;-73
2021/07/01 00:20:18;;;;;;;2.63;1.20;;;;;;;12.90;89.07;96134.88;5012294;28;20049;-74
2021/07/01 00:22:45;;;;;;;1.20;0.80;;;;;;;12.82;88.48;96136.56;5013079;28;20052;-73
2021/07/01 00:25:14;;;;;;;2.83;1.30;;;;;;;12.74;88.89;96138.25;5012359;28;20038;-76
2021/07/01 00:27:41;;;;;;;1.30;1.00;;;;;;;12.70;89.11;96125.59;5012887;28;20061;-74
2021/07/01 00:30:11;;;;;;;2.08;1.08;;;;;;;12.65;88.75;96129.34;5012248;28;20046;-74
2021/07/01 00:32:38;;;;;;;1.60;0.90;;;;;;;12.59;89.13;96136.16;5012485;28;20046;-74
2021/07/01 00:35:06;;;;;;;1.23;0.90;;;;;;;12.54;89.17;96133.63;5012244;28;20054;-74
2021/07/01 00:37:33;;;;;;;2.67;1.17;;;;;;;12.46;89.42;96139.94;5012493;28;20049;-73
2021/07/01 00:40:00;;;;;;;1.70;0.70;;;;;;;12.45;89.92;96141.09;5012563;28;20053;-74
2021/07/01 00:42:26;;;;;;;2.85;1.20;;;;;;;12.36;89.79;96140.38;5011898;28;20056;-74
2021/07/01 00:44:53;;;;;;;2.35;1.00;;;;;;;12.33;90.00;96143.78;5012618;28;20053;-73
2021/07/01 00:47:21;;;;;;;7.75;1.48;;;;;;;12.31;90.19;96141.38;5011913;28;20058;-75
2021/07/01 00:49:48;;;;;;;1.92;1.05;;;;;;;12.37;90.58;96140.06;5012328;28;20057;-73
2021/07/01 00:52:14;;;;;;;2.03;0.90;;;;;;;12.34;89.59;96139.91;5012202;28;20072;-74
2021/07/01 00:54:42;;;;;;;2.67;1.13;;;;;;;12.34;89.64;96139.91;5012165;28;20508;-73
2021/07/01 00:57:09;;;;;;;3.55;1.20;;;;;;;12.23;89.32;96139.53;5011725;28;20056;-73
2021/07/01 00:59:37;;;;;;;7.00;3.85;;;;;;;12.23;89.63;96134.84;5009958;28;20497;-74
2021/07/01 01:02:04;;;;;;;2.00;1.00;;;;;;;12.19;88.89;96128.47;5010960;28;20058;-73
2021/07/01 01:04:32;;;;;;;2.90;0.98;;;;;;;12.15;89.23;96138.44;5012157;28;20046;-73
2021/07/01 01:06:58;;;;;;;2.83;1.17;;;;;;;12.11;88.71;96137.53;5011622;28;20406;-73
2021/07/01 01:09:25;;;;;;;3.33;1.30;;;;;;;12.06;89.18;96142.34;5010848;28;20050;-74
2021/07/01 01:11:51;;;;;;;1.90;1.13;;;;;;;12.07;88.90;96139.31;5011541;28;20050;-73
2021/07/01 01:14:18;;;;;;;2.78;1.20;;;;;;;12.07;89.07;96136.59;5011463;28;20046;-73
2021/07/01 01:16:44;;;;;;;2.85;1.50;;;;;;;12.10;88.77;96138.63;5011092;28;20042;-73
2021/07/01 01:19:11;;;;;;;2.42;1.30;;;;;;;12.11;88.91;96137.53;5011056;28;20057;-73
2021/07/01 01:21:39;;;;;;;2.00;0.70;;;;;;;12.13;88.40;96134.47;5011445;28;20551;-73
2021/07/01 01:24:07;;;;;;;2.03;1.10;;;;;;;12.13;88.49;96146.19;5010812;28;20056;-73
2021/07/01 01:26:34;;;;;;;3.92;1.25;;;;;;;12.16;88.15;96139.22;5011440;28;20046;-73
2021/07/01 01:29:00;;;;;;;1.73;1.00;;;;;;;12.19;88.13;96139.38;5011820;28;20046;-76
2021/07/01 01:31:28;;;;;;;2.20;1.17;;;;;;;12.26;88.05;96145.09;5011173;28;20042;-72
2021/07/01 01:33:55;;;;;;;2.00;1.23;;;;;;;12.36;87.11;96137.63;5011680;28;20046;-73
2021/07/01 01:36:22;;;;;;;3.65;1.13;;;;;;;12.43;87.02;96132.44;5010989;28;20056;-73
2021/07/01 01:38:48;;;;;;;3.53;1.33;;;;;;;12.43;86.48;96143.38;5011464;28;20054;-73
2021/07/01 01:41:16;;;;;;;3.67;1.30;;;;;;;12.39;85.85;96137.78;5011085;28;20073;-73
2021/07/01 01:43:43;;;;;;;4.22;1.27;;;;;;;12.37;86.02;96134.59;5011585;28;20049;-73
2021/07/01 01:46:09;;;;;;;1.77;1.05;;;;;;;12.39;85.39;96136.97;5011301;28;20049;-73
2021/07/01 01:48:36;;;;;;;4.03;1.45;;;;;;;12.45;86.32;96141.09;5011037;28;20053;-73
2021/07/01 01:51:02;;;;;;;2.78;1.20;;;;;;;12.50;86.25;96141.69;5010615;28;20061;-73
2021/07/01 01:53:29;;;;;;;2.50;1.45;;;;;;;12.56;85.85;96136.81;5011180;28;20049;-73
2021/07/01 01:55:55;;;;;;;2.60;1.45;;;;;;;12.60;85.47;96135.00;5011351;28;20046;-73
2021/07/01 01:58:23;;;;;;;2.25;1.02;;;;;;;12.59;84.64;96140.81;5010911;28;20095;-72
2021/07/01 02:00:49;;;;;;;3.13;1.38;;;;;;;12.56;84.67;96136.81;5011199;28;20050;-73
2021/07/01 02:03:16;;;;;;;5.75;1.55;;;;;;;12.55;84.79;96137.94;5011057;28;20432;-73
2021/07/01 02:05:42;;;;;;;2.60;1.50;;;;;;;12.58;84.21;96140.03;5011351;28;20524;-73
2021/07/01 02:08:10;;;;;;;3.05;1.65;;;;;;;12.63;84.45;96142.53;5010833;28;20042;-73
2021/07/01 02:10:37;;;;;;;4.65;1.33;;;;;;;12.61;83.88;96131.13;5011469;28;20053;-72
2021/07/01 02:13:09;;;;;;;4.25;1.25;;;;;;;12.65;83.49;96134.81;5010989;28;20177;-73
2021/07/01 02:15:37;;;;;;;2.47;1.33;;;;;;;12.63;83.80;96137.06;5011285;28;20068;-73
2021/07/01 02:18:04;;;;;;;2.88;1.30;;;;;;;12.63;83.80;96133.53;5010898;28;20481;-73
2021/07/01 02:20:30;;;;;;;2.88;1.52;;;;;;;12.65;83.28;96136.75;5011249;28;20046;-72
2021/07/01 02:22:57;;;;;;;2.15;1.40;;;;;;;12.68;83.17;96136.84;5011281;28;20042;-73
2021/07/01 02:25:24;;;;;;;4.55;1.50;;;;;;;12.67;82.87;96143.44;5010819;28;20046;-73
2021/07/01 02:27:50;;;;;;;2.20;1.33;;;;;;;12.70;83.19;96145.53;5012246;28;20068;-73
2021/07/01 02:30:19;;;;;;;3.70;1.40;;;;;;;12.68;82.58;96141.50;5014619;28;20397;-73
2021/07/01 02:32:47;;;;;;;2.65;1.27;;;;;;;12.63;82.47;96149.91;5015024;28;20065;-73
2021/07/01 02:35:14;;;;;;;1.63;1.20;;;;;;;12.62;82.55;96146.38;5014668;28;20056;-72
2021/07/01 02:37:41;;;;;;;11.73;1.50;;;;;;;12.60;83.11;96145.94;5014833;28;20054;-73
2021/07/01 02:40:12;;;;;;;2.22;1.40;;;;;;;12.61;83.54;96147.53;5014407;28;20053;-72
2021/07/01 02:42:39;;;;;;;2.33;1.50;;;;;;;12.63;83.27;96142.53;5014888;28;20125;-73
2021/07/01 02:45:07;;;;;;;5.47;1.38;;;;;;;12.65;83.48;96148.47;5014494;28;20050;-73
2021/07/01 02:47:34;;;;;;;3.30;1.50;;;;;;;12.65;82.75;96153.94;5014801;28;20053;-73
2021/07/01 02:50:01;;;;;;;2.83;1.42;;;;;;;12.65;83.42;96151.19;5014909;28;20057;-72
2021/07/01 02:52:28;;;;;;;2.17;1.38;;;;;;;12.67;83.34;96157.09;5014458;28;20124;-73
2021/07/01 02:54:54;;;;;;;2.65;1.40;;;;;;;12.67;83.37;96157.09;5014619;28;20056;-72
2021/07/01 02:57:21;;;;;;;2.72;1.30;;;;;;;12.69;83.35;96157.59;5014338;28;20042;-73
2021/07/01 02:59:47;;;;;;;2.75;1.70;;;;;;;12.69;84.26;96149.38;5014287;28;20421;-73
2021/07/01 03:02:14;;;;;;;3.63;1.52;;;;;;;12.70;84.03;96150.97;4994497;28;20046;-72
2021/07/01 03:04:40;;;;;;;3.90;1.50;;;;;;;12.74;84.05;96154.66;4995002;28;20054;-73
2021/07/01 03:07:08;;;;;;;1.83;1.10;;;;;;;12.80;83.77;96153.28;4994330;28;20049;-73
2021/07/01 03:09:34;;;;;;;2.90;1.60;;;;;;;12.83;83.58;96148.28;4994621;28;20412;-73
2021/07/01 03:12:01;;;;;;;1.90;1.20;;;;;;;12.80;83.32;96157.97;4994781;28;20662;-73
2021/07/01 03:14:27;;;;;;;6.00;1.58;;;;;;;12.79;83.11;96156.38;4994216;28;20050;-73
2021/07/01 03:16:55;;;;;;;5.95;1.70;;;;;;;12.79;83.60;96151.72;4994578;28;20045;-72
2021/07/01 03:19:21;;;;;;;4.53;1.50;;;;;;;12.76;83.15;96157.84;4994089;28;20047;-73
2021/07/01 03:21:48;;;;;;;2.40;1.42;;;;;;;12.76;83.94;96152.38;4994554;28;20409;-72
2021/07/01 03:24:16;;;;;;;2.42;1.45;;;;;;;12.79;83.83;96157.16;4993864;28;20485;-72
2021/07/01 03:26:43;;;;;;;3.22;1.42;;;;;;;12.82;83.67;96149.41;4994532;28;20501;-72
2021/07/01 03:29:10;;;;;;;3.40;1.40;;;;;;;12.81;83.75;96151.34;5001622;28;20053;-72
2021/07/01 03:31:37;;;;;;;3.35;1.50;;;;;;;12.80;83.91;96147.03;5013725;28;20049;-73
2021/07/01 03:34:03;;;;;;;2.45;1.20;;;;;;;12.83;84.02;96157.28;5013447;28;20041;-72
2021/07/01 03:36:30;;;;;;;2.63;1.40;;;;;;;12.85;84.29;96155.03;5013963;28;20046;-72
2021/07/01 03:38:57;;;;;;;2.15;1.20;;;;;;;12.82;83.71;96160.34;5013214;28;20046;-73
2021/07/01 03:41:25;;;;;;;3.80;1.70;;;;;;;12.80;83.67;96152.50;5012906;28;20157;-73
2021/07/01 03:43:52;;;;;;;4.15;1.83;;;;;;;12.80;84.16;96155.22;5013507;28;20512;-73
2021/07/01 03:46:19;;;;;;;3.33;1.50;;;;;;;12.78;83.61;96161.00;5013255;28;20042;-73
2021/07/01 03:48:45;;;;;;;2.85;1.90;;;;;;;12.79;84.24;96157.16;5013527;28;20504;-73
2021/07/01 03:51:11;;;;;;;5.03;1.55;;;;;;;12.86;84.47;96158.56;5013047;28;20049;-73
2021/07/01 03:53:38;;;;;;;2.78;1.70;;;;;;;12.88;84.11;96159.78;5013492;28;20049;-74
2021/07/01 03:56:05;;;;;;;2.55;1.38;;;;;;;12.88;84.01;96164.47;5013012;28;20053;-73
2021/07/01 03:58:33;;;;;;;2.42;1.30;;;;;;;12.91;83.67;96163.81;5013597;28;20068;-73
2021/07/01 04:00:59;;;;;;;3.67;1.92;;;;;;;12.90;83.35;96168.47;5012972;28;20050;-74
2021/07/01 04:03:26;;;;;;;2.50;1.35;;;;;;;12.87;83.55;96168.34;5012981;28;20038;-75
2021/07/01 04:05:52;;;;;;;5.13;2.10;;;;;;;12.86;83.91;96166.75;5013263;28;20060;-73
2021/07/01 04:08:19;;;;;;;2.88;1.80;;;;;;;12.90;83.86;96167.69;5012886;28;20046;-75
2021/07/01 04:10:45;;;;;;;2.85;1.73;;;;;;;12.93;83.72;96172.44;5013222;28;20512;-73
2021/07/01 04:13:12;;;;;;;2.80;1.73;;;;;;;12.98;84.11;96180.44;5012339;28;20057;-73
2021/07/01 04:15:40;;;;;;;4.70;1.60;;;;;;;13.00;84.28;96173.50;5013223;28;20041;-73
2021/07/01 04:18:10;;;;;;;3.20;1.75;;;;;;;13.09;83.30;96176.13;5012854;28;20042;-73
2021/07/01 04:20:37;;;;;;;2.92;1.52;;;;;;;13.06;82.63;96177.63;5013086;28;20049;-73
2021/07/01 04:23:04;;;;;;;2.95;1.70;;;;;;;13.10;82.81;96177.72;5012531;28;20049;-72
2021/07/01 04:25:30;;;;;;;4.57;2.00;;;;;;;13.13;82.61;96182.53;5012821;28;20045;-73
2021/07/01 04:27:57;;;;;;;3.58;1.90;;;;;;;13.15;82.51;96180.25;5012624;28;20060;-72
2021/07/01 04:30:23;;;;;;;4.15;1.90;;;;;;;13.11;82.67;96171.16;5012116;28;20389;-73
2021/07/01 04:32:51;;;;;;;4.32;2.17;;;;;;;13.10;83.19;96185.94;5012841;28;20045;-73
2021/07/01 04:35:18;;;;;;;3.10;1.90;;;;;;;13.09;83.14;96175.34;5012239;28;20049;-74
2021/07/01 04:37:44;;;;;;;4.78;2.42;;;;;;;13.05;83.17;96181.50;5012354;28;20130;-73
2021/07/01 04:40:12;;;;;;;3.42;1.75;;;;;;;13.02;83.44;96178.63;5012142;28;20438;-73
2021/07/01 04:42:39;;;;;;;5.93;2.25;;;;;;;13.02;83.35;96182.16;5012131;28;20050;-73
2021/07/01 04:45:07;;;;;;;3.42;1.92;;;;;;;13.03;83.93;96177.50;5012089;28;20048;-74
2021/07/01 04:47:34;;;;;;;3.22;2.05;;;;;;;12.99;83.62;96176.56;5012384;28;20646;-73
2021/07/01 04:50:02;;;;;;;3.85;2.13;;;;;;;13.02;84.13;96175.91;5012285;28;20057;-73
2021/07/01 04:52:29;;;;;;;2.90;1.85;;;;;;;13.06;84.11;96172.16;5012131;28;20073;-74
2021/07/01 04:54:56;;;;;;;3.92;2.30;;;;;;;13.09;83.66;96181.59;5012325;28;20048;-73
2021/07/01 04:57:22;;;;;;;3.42;2.22;;;;;;;13.13;83.53;96176.25;5011892;28;20057;-73
2021/07/01 04:59:48;;;;;;;5.22;2.47;;;;;;;13.08;83.53;96180.00;5011652;28;20050;-73
2021/07/01 05:02:15;;;;;;;6.15;2.30;;;;;;;13.09;84.28;96178.88;5012075;28;20050;-73
2021/07/01 05:04:42;;;;;;;3.47;2.10;;;;;;;13.13;83.93;96181.72;5012341;28;20058;-73
2021/07/01 05:07:09;;;;;;;3.28;2.20;;;;;;;13.15;83.63;96184.91;5011655;28;20057;-73
2021/07/01 05:09:36;;;;;;;3.60;2.10;;;;;;;13.13;83.66;96188.00;5012328;28;20520;-73
2021/07/01 05:12:03;;;;;;;6.35;2.40;;;;;;;13.11;83.50;96182.09;5011606;28;20046;-73
2021/07/01 05:14:29;;;;;;;6.13;1.80;;;;;;;13.14;83.39;96189.59;5012346;28;20046;-73
2021/07/01 05:16:56;;;;;;;4.68;2.13;;;;;;;13.15;83.86;96190.38;5012008;28;20448;-73
2021/07/01 05:19:22;;;;;;;4.50;2.10;;;;;;;13.14;83.99;96184.13;5011415;28;20065;-73
2021/07/01 05:21:49;;;;;;;5.53;2.55;;;;;;;13.18;83.71;96196.00;5012133;28;20048;-73
2021/07/01 05:24:16;;;;;;;5.03;2.60;;;;;;;13.23;83.93;96193.06;5011528;28;20053;-74
2021/07/01 05:26:43;;;;;;;3.35;2.10;;;;;;;13.23;83.47;96195.81;5012101;28;20046;-74
2021/07/01 05:29:09;;;;;;;4.28;2.53;;;;;;;13.24;84.32;96191.91;5011576;28;20053;-73
2021/07/01 05:31:36;;;;;;;4.55;2.58;;;;;;;13.25;83.39;96196.25;5011535;28;20054;-74
2021/07/01 05:34:02;;;;;;;4.05;2.50;;;;;;;13.29;83.67;96199.91;5011514;28;20056;-72
2021/07/01 05:36:29;;;;;;;5.25;2.72;;;;;;;13.29;83.83;96199.91;5011821;28;20068;-74
2021/07/01 05:38:55;;;;;;;5.50;2.90;;;;;;;13.35;83.44;96205.16;5011453;28;20058;-74
2021/07/01 05:41:23;;;;;;;5.03;2.92;;;;;;;13.32;83.27;96196.50;5011275;28;20537;-73
2021/07/01 05:43:50;;;;;;;5.43;2.90;;;;;;;13.30;83.51;96195.22;5011564;28;20057;-74
2021/07/01 05:46:16;;;;;;;6.22;2.97;;;;;;;13.31;83.76;96200.38;5011246;28;20069;-74
2021/07/01 05:48:43;;;;;;;4.25;2.60;;;;;;;13.31;84.16;96200.38;5011502;28;20417;-74
2021/07/01 05:51:12;;;;;;;5.32;3.35;;;;;;;13.34;84.46;96203.56;5011123;28;20045;-74
2021/07/01 05:53:45;;;;;;;5.63;2.85;;;;;;;13.34;84.35;96204.38;5011426;28;20049;-74
2021/07/01 05:56:12;;;;;;;4.47;3.03;;;;;;;13.39;84.20;96206.09;5011197;28;20137;-73
2021/07/01 05:58:39;;;;;;;4.82;2.50;;;;;;;13.40;83.81;96210.41;5011346;28;20042;-73
2021/07/01 06:01:06;;;;;;;4.82;2.88;;;;;;;13.47;84.40;96210.66;5010810;28;20050;-74
2021/07/01 06:03:33;;;;;;;5.57;2.97;;;;;;;13.51;83.11;96208.81;5010868;28;20045;-73
2021/07/01 06:06:07;;;;;;;6.55;3.20;;;;;;;13.56;83.33;96211.34;5011341;28;20417;-73
2021/07/01 06:08:34;;;;;;;8.90;3.50;;;;;;;13.55;84.06;96215.22;5010707;28;20125;-78
2021/07/01 06:11:06;;;;;;;6.63;3.85;;;;;;;13.56;83.78;96216.81;5010190;28;20042;-77
2021/07/01 06:13:36;;;;;;;5.45;3.25;;;;;;;13.57;83.45;96212.94;5011368;28;20037;-78
2021/07/01 06:16:05;;;;;;;5.53;3.03;;;;;;;13.57;83.39;96213.75;5010959;28;20049;-76
2021/07/01 06:18:31;;;;;;;7.00;3.30;;;;;;;13.51;82.93;96214.28;5010963;28;20493;-77
2021/07/01 06:20:58;;;;;;;5.25;3.50;;;;;;;13.44;83.46;96223.06;5011262;28;20050;-77
2021/07/01 06:23:24;;;;;;;6.90;3.83;;;;;;;13.42;83.74;96227.31;5010593;28;20450;-78
2021/07/01 06:25:53;;;;;;;6.20;3.63;;;;;;;13.40;84.00;96218.63;5011065;28;20041;-77
2021/07/01 06:28:20;;;;;;;5.38;3.05;;;;;;;13.37;84.05;96230.25;5010568;28;20046;-78
2021/07/01 06:30:48;;;;;;;5.40;3.35;;;;;;;13.38;83.85;96227.16;5010754;28;20049;-79
2021/07/01 06:33:17;;;;;;;5.72;3.50;;;;;;;13.41;84.39;96231.94;5010812;28;20045;-78
2021/07/01 06:35:49;;;;;;;7.22;3.30;;;;;;;13.42;83.73;96225.34;5011073;28;20050;-78
2021/07/01 06:38:17;;;;;;;7.10;3.75;;;;;;;13.45;83.24;96229.34;5010035;28;20096;-77
2021/07/01 06:40:47;;;;;;;6.53;3.83;;;;;;;13.48;83.15;96228.69;5007776;28;20100;-77
2021/07/01 06:43:14;;;;;;;9.55;3.75;;;;;;;13.49;83.36;96227.53;5007487;28;20092;-76
2021/07/01 06:45:43;;;;;;;6.45;3.80;;;;;;;13.57;83.53;96234.81;5008084;28;20053;-77
2021/07/01 06:48:11;;;;;;;7.63;3.45;;;;;;;13.61;83.99;96235.75;5007879;28;20145;-76
2021/07/01 06:50:40;;;;;;;6.03;3.78;;;;;;;13.67;83.76;96228.91;5007942;28;20046;-77
2021/07/01 06:53:07;;;;;;;5.45;3.35;;;;;;;13.72;83.32;96231.41;5007631;28;20108;-77
2021/07/01 06:55:34;;;;;;;5.57;3.28;;;;;;;13.81;83.08;96240.31;5007859;28;20616;-77
2021/07/01 06:58:00;;;;;;;5.47;3.50;;;;;;;13.80;81.46;96238.72;5007540;28;20066;-75
2021/07/01 07:00:27;;;;;;;4.88;3.10;;;;;;;13.82;81.87;96238.38;5007242;28;20042;-77
2021/07/01 07:02:54;;;;;;;4.70;2.90;;;;;;;13.88;82.82;96249.91;5007654;28;20060;-78
2021/07/01 07:05:22;;;;;;;5.15;3.00;;;;;;;14.00;82.35;96247.19;5007503;28;20073;-78
2021/07/01 07:07:51;;;;;;;4.30;2.70;;;;;;;14.03;81.64;96246.50;5007995;28;20092;-77
2021/07/01 07:10:20;;;;;;;4.72;3.03;;;;;;;14.07;81.56;96252.88;5007151;28;20042;-77
2021/07/01 07:12:49;;;;;;;4.63;3.15;;;;;;;14.08;81.18;96254.47;5007848;28;20050;-77
2021/07/01 07:15:18;;;;;;;3.83;2.58;;;;;;;14.10;80.74;96254.94;5008796;28;20049;-78
2021/07/01 07:17:50;;;;;;;4.82;2.65;;;;;;;14.08;80.03;96254.47;5011360;28;20050;-77
2021/07/01 07:20:20;;;;;;;5.03;3.33;;;;;;;14.04;80.59;96253.56;5010624;28;20461;-76
2021/07/01 07:22:48;;;;;;;8.15;3.38;;;;;;;14.04;80.70;96248.06;5011191;28;20069;-76
2021/07/01 07:25:16;;;;;;;5.82;3.15;;;;;;;14.05;80.82;96255.19;5010751;28;20053;-76
2021/07/01 07:27:55;;;;;;;5.47;3.35;;;;;;;14.14;80.97;96252.31;5010566;28;20057;-75
2021/07/01 07:30:22;;;;;;;4.45;2.63;;;;;;;14.16;81.41;96258.25;5011030;28;20042;-75
2021/07/01 07:32:50;;;;;;;4.38;2.72;;;;;;;14.17;79.86;96251.63;5013600;28;20521;-76
2021/07/01 07:35:17;;;;;;;7.18;2.92;;;;;;;14.17;79.62;96252.41;5013620;28;20520;-76
2021/07/01 07:37:44;;;;;;;4.90;2.75;;;;;;;14.21;80.86;96258.81;5013514;28;20042;-77
2021/07/01 07:40:12;;;;;;;3.25;2.22;;;;;;;14.23;81.25;96262.00;5013410;28;20042;-77
2021/07/01 07:42:43;;;;;;;4.47;2.42;;;;;;;14.23;79.28;96264.72;5013673;28;20057;-77
2021/07/01 07:45:11;;;;;;;4.63;2.65;;;;;;;14.21;79.88;96269.78;5013488;28;20054;-79
2021/07/01 07:47:37;;;;;;;3.20;2.20;;;;;;;14.19;79.18;96266.56;5013766;28;20049;-76
2021/07/01 07:50:05;;;;;;;4.47;2.80;;;;;;;14.24;79.54;96263.59;5013212;28;20038;-75
2021/07/01 07:52:32;;;;;;;4.75;2.67;;;;;;;14.34;80.64;96267.81;5013551;28;20042;-77
2021/07/01 07:55:03;;;;;;;5.38;3.03;;;;;;;14.35;78.58;96259.25;5013509;28;20049;-76
2021/07/01 07:57:31;;;;;;;3.95;2.60;;;;;;;14.35;79.16;96263.91;5013502;28;20049;-80
2021/07/01 07:59:59;;;;;;;5.03;3.13;;;;;;;14.40;79.44;96262.88;5013248;28;20054;-79
2021/07/01 08:02:45;;;;;;;3.63;2.70;;;;;;;14.43;80.35;96262.22;5012904;28;20076;-77
2021/07/01 08:05:14;;;;;;;5.00;2.78;;;;;;;14.45;80.26;96262.66;5012784;28;20073;-79
2021/07/01 08:07:41;;;;;;;4.22;2.55;;;;;;;14.55;79.62;96257.53;5013145;28;20060;-79
2021/07/01 08:10:10;;;;;;;4.07;2.58;;;;;;;14.60;78.67;96259.22;5012687;28;20053;-78
2021/07/01 08:12:41;;;;;;;5.65;3.13;;;;;;;14.55;78.77;96257.53;5012647;28;20046;-75
2021/07/01 08:15:12;;;;;;;4.22;2.92;;;;;;;14.48;80.64;96272.97;5011832;28;20053;-75
2021/07/01 08:17:41;;;;;;;5.95;3.05;;;;;;;14.34;80.99;96267.81;5010200;28;20050;-77
2021/07/01 08:20:10;;;;;;;7.53;3.65;;;;;;;14.28;81.36;96269.97;5008211;28;20050;-76
2021/07/01 08:22:38;;;;;;;5.85;3.20;;;;;;;14.21;81.89;96269.78;5009750;28;20054;-77
2021/07/01 08:25:05;;;;;;;5.10;3.28;;;;;;;14.18;82.93;96270.44;5008664;28;20049;-77
2021/07/01 08:27:32;;;;;;;6.95;3.50;;;;;;;14.22;83.97;96267.81;5009419;28;20046;-76
2021/07/01 08:30:00;;;;;;;5.57;3.50;;;;;;;14.20;83.58;96270.09;5009510;28;20501;-76
2021/07/01 08:32:29;;;;;;;6.90;3.63;;;;;;;14.23;83.92;96277.63;4989436;28;20409;-76
2021/07/01 08:34:56;;;;;;;7.82;3.58;;;;;;;14.28;83.85;96269.97;4990096;28;20399;-75
2021/07/01 08:37:23;;;;;;;6.13;3.67;;;;;;;14.33;83.88;96261.53;4989816;28;20062;-79
2021/07/01 08:39:51;;;;;;;5.55;3.83;;;;;;;14.38;84.70;96262.44;4990190;28;20057;-77
2021/07/01 08:42:20;;;;;;;10.60;4.20;;;;;;;14.38;84.88;96267.94;4989679;28;20054;-77
2021/07/01 08:44:56;;;;;;;5.80;4.03;;;;;;;14.41;84.68;96272.69;5007789;28;20077;-77
2021/07/01 08:47:29;;;;;;;8.15;4.25;;;;;;;14.36;84.51;96271.81;5009309;28;20453;-78
2021/07/01 08:49:59;;;;;;;6.88;4.07;;;;;;;14.33;85.48;96271.69;5009544;28;20050;-78
2021/07/01 08:52:27;;;;;;;8.63;4.55;;;;;;;14.19;86.17;96277.50;5008937;28;20060;-76
2021/07/01 08:54:59;;;;;;;8.63;5.30;;;;;;;14.09;87.06;96280.72;5009250;28;20069;-78
2021/07/01 08:57:33;;;;;;;6.80;4.43;;;;;;;13.97;87.49;96272.50;5009155;28;20056;-78
2021/07/01 09:00:06;;;;;;;6.85;4.15;;;;;;;13.89;88.17;96284.38;5009137;28;20057;-77
2021/07/01 09:02:36;;;;;;;6.65;3.65;;;;;;;13.88;89.05;96285.50;5009254;28;20073;-78
2021/07/01 09:05:10;;;;;;;6.65;4.00;;;;;;;13.80;89.56;96292.69;5008654;28;20135;-77
2021/07/01 09:07:39;;;;;;;4.85;3.30;;;;;;;13.66;89.63;96287.50;5009368;28;20140;-78
2021/07/01 09:10:10;;;;;;;6.22;3.40;;;;;;;13.60;89.80;96285.34;5008848;28;20076;-78
2021/07/01 09:12:43;;;;;;;7.82;3.15;;;;;;;13.55;90.03;96292.63;5009107;28;20050;-78
2021/07/01 09:15:11;;;;;;;7.13;3.67;;;;;;;13.53;90.67;96283.97;5008097;28;20476;-78
2021/07/01 09:17:47;;;;;;;11.63;4.65;;;;;;;13.59;92.19;96298.22;5008593;28;20056;-77
2021/07/01 09:20:19;;;;;;;6.47;4.40;;;;;;;13.67;92.85;96289.09;5008199;28;20141;-78
2021/07/01 09:22:47;;;;;;;9.93;4.70;;;;;;;13.77;93.37;96294.13;5008692;28;20065;-77
2021/07/01 09:25:14;;;;;;;5.93;3.75;;;;;;;13.72;92.39;96296.28;5007833;28;20054;-77
2021/07/01 09:27:44;;;;;;;6.18;3.55;;;;;;;13.74;92.14;96289.38;5008699;28;20058;-77
2021/07/01 09:30:12;;;;;;;8.00;4.70;;;;;;;13.77;92.74;96291.41;5007698;28;20046;-77
2021/07/01 09:32:40;;;;;;;11.75;5.40;;;;;;;13.91;93.01;96293.03;5008301;28;20104;-77
2021/07/01 09:35:10;;;;;;;8.52;5.10;;;;;;;14.00;93.22;96285.53;5007819;28;20053;-77
2021/07/01 09:37:41;;;;;;;7.75;4.70;;;;;;;13.95;91.52;96283.00;5007413;28;20053;-78
2021/07/01 09:40:09;;;;;;;8.27;4.20;;;;;;;13.94;91.59;96293.16;5008053;28;20435;-78
2021/07/01 09:42:36;;;;;;;6.35;4.15;;;;;;;13.94;90.52;96281.38;5008463;28;20046;-78
2021/07/01 09:45:08;;;;;;;7.20;3.90;;;;;;;13.88;89.57;96291.75;5008068;28;20116;-77
2021/07/01 09:47:38;;;;;;;5.80;3.58;;;;;;;13.86;89.79;96285.84;5008530;28;20053;-78
2021/07/01 09:50:07;;;;;;;5.95;3.90;;;;;;;13.87;90.01;96270.22;5008030;28;20766;-77
2021/07/01 09:52:41;;;;;;;8.82;4.28;;;;;;;13.90;90.41;96277.75;5008678;28;20049;-76
2021/07/01 09:55:09;;;;;;;6.80;4.25;;;;;;;13.91;90.63;96290.28;5006911;28;20123;-76
2021/07/01 09:57:38;;;;;;;5.57;3.80;;;;;;;13.88;90.84;96289.03;5008546;28;20050;-77
2021/07/01 10:00:07;;;;;;;8.40;5.25;;;;;;;13.92;91.02;96279.00;5007641;28;20056;-76
2021/07/01 10:02:34;;;;;;;7.38;4.15;;;;;;;13.99;91.19;96284.72;5008420;28;20054;-76
2021/07/01 10:05:01;;;;;;;9.55;4.65;;;;;;;14.01;91.46;96281.63;5008363;28;20053;-77
2021/07/01 10:07:27;;;;;;;9.65;5.43;;;;;;;14.12;91.74;96288.25;5007943;28;20401;-78
2021/07/01 10:09:58;;;;;;;8.55;5.00;;;;;;;14.17;91.72;96279.81;5007958;28;20535;-77
2021/07/01 10:12:26;;;;;;;9.45;5.20;;;;;;;14.29;92.01;96282.53;5008095;28;20054;-77
2021/07/01 10:14:56;;;;;;;7.18;4.40;;;;;;;14.36;91.41;96271.03;5008009;28;20134;-78
2021/07/01 10:17:23;;;;;;;8.43;4.45;;;;;;;14.44;91.41;96272.03;5008086;28;20058;-77
2021/07/01 10:20:02;;;;;;;6.68;4.32;;;;;;;14.52;92.21;96273.88;5008037;28;20060;-77
2021/07/01 10:22:35;;;;;;;7.05;4.00;;;;;;;14.59;91.66;96274.09;5007874;28;20056;-78
2021/07/01 10:25:04;;;;;;;7.25;4.00;;;;;;;14.64;91.33;96271.09;5007616;28;20053;-75
2021/07/01 10:27:34;;;;;;;5.07;3.75;;;;;;;14.69;91.25;96273.59;5008193;28;20057;-76
2021/07/01 10:30:12;;;;;;;7.72;3.92;;;;;;;14.70;91.12;96269.72;5007987;28;20057;-77
2021/07/01 10:32:41;;;;;;;6.55;4.13;;;;;;;14.70;88.30;96266.97;5007620;28;20042;-77
2021/07/01 10:35:26;;;;;;;5.40;3.47;;;;;;;14.67;86.80;96269.59;5007495;28;20372;-78
2021/07/01 10:38:07;;;;;;;5.75;4.07;;;;;;;14.56;86.54;96269.28;5007858;28;20053;-76
2021/07/01 10:40:38;;;;;;;6.65;4.45;;;;;;;14.56;88.22;96269.28;5007620;28;20382;-77
2021/07/01 10:43:06;;;;;;;9.48;5.53;;;;;;;14.56;87.57;96259.16;5007788;28;20068;-76
2021/07/01 10:45:33;;;;;;;6.47;4.57;;;;;;;14.69;88.88;96262.66;5007962;28;20049;-78
2021/07/01 10:48:12;;;;;;;6.10;4.20;;;;;;;14.92;89.24;96260.16;5007555;28;20053;-76
2021/07/01 10:50:39;;;;;;;5.45;3.85;;;;;;;15.13;86.64;96265.47;5011615;28;20046;-75
2021/07/01 10:53:26;;;;;;;5.45;3.40;;;;;;;15.22;83.78;96266.09;5011106;28;20057;-74
2021/07/01 10:55:55;;;;;;;6.25;3.35;;;;;;;15.22;81.71;96274.34;5011714;28;20054;-76
2021/07/01 10:58:22;;;;;;;5.30;3.50;;;;;;;15.13;82.24;96270.94;5011094;28;20046;-76
2021/07/01 11:00:48;;;;;;;5.07;4.07;;;;;;;15.03;83.88;96269.50;5011594;28;20077;-75
2021/07/01 11:03:20;;;;;;;6.05;3.75;;;;;;;15.06;84.18;96271.53;5010841;28;20049;-79
2021/07/01 11:05:47;;;;;;;4.80;3.13;;;;;;;15.06;83.04;96276.25;5011476;28;20085;-77
2021/07/01 11:08:23;;;;;;;5.40;3.70;;;;;;;14.98;82.71;96279.91;5010696;28;20297;-77
2021/07/01 11:10:50;;;;;;;5.75;3.95;;;;;;;14.94;84.01;96279.03;5011363;28;20046;-78
2021/07/01 11:13:19;;;;;;;5.82;4.00;;;;;;;14.96;84.36;96282.22;5010693;28;20074;-77
2021/07/01 11:16:10;;;;;;;7.15;5.00;;;;;;;15.03;84.52;96274.19;5010851;28;20058;-77
2021/07/01 11:18:40;;;;;;;7.07;4.40;;;;;;;15.13;85.80;96273.69;5000822;28;20046;-77
2021/07/01 11:21:09;;;;;;;6.15;4.32;;;;;;;15.23;86.19;96264.97;5010678;28;20054;-77
2021/07/01 11:23:35;;;;;;;6.38;3.53;;;;;;;15.33;85.43;96253.47;5011329;28;20050;-77
2021/07/01 11:26:02;;;;;;;6.43;4.70;;;;;;;15.51;86.74;96264.16;5010525;28;20046;-75
2021/07/01 11:28:30;;;;;;;6.28;4.47;;;;;;;15.74;87.82;96262.41;5010949;28;20057;-75
2021/07/01 11:31:00;;;;;;;7.25;3.90;;;;;;;15.89;84.28;96261.63;5011153;28;20046;-75
2021/07/01 11:33:28;;;;;;;6.18;4.63;;;;;;;16.04;83.92;96264.75;5010889;28;20788;-75
2021/07/01 11:36:10;;;;;;;6.72;4.60;;;;;;;16.17;84.32;96257.97;5010720;28;20153;-75
2021/07/01 11:38:36;;;;;;;6.10;3.45;;;;;;;16.17;77.63;96255.22;5010605;28;20454;-75